sensor_id;sensor_type;location;lat;lon;timestamp;P1;durP1;ratioP1;P2;durP2;ratioP2
75550;SDS011;65071;53.082;18.218;2023-07-08T00:01:08;4.30;;;3.10;;
75550;SDS011;65071;53.082;18.218;2023-07-08T00:03:45;6.40;;;3.40;;
75550;SDS011;65071;53.082;18.218;2023-07-08T00:06:15;5.00;;;3.20;;
75550;SDS011;65071;53.082;18.218;2023-07-08T00:08:44;5.00;;;3.10;;
75550;SDS011;65071;53.082;18.218;2023-07-08T00:11:11;4.30;;;3.20;;
75550;SDS011;65071;53.082;18.218;2023-07-08T00:13:38;3.90;;;3.00;;
75550;SDS011;65071;53.082;18.218;2023-07-08T00:16:08;3.90;;;3.20;;
75550;SDS011;65071;53.082;18.218;2023-07-08T00:18:37;4.20;;;3.20;;
75550;SDS011;65071;53.082;18.218;2023-07-08T00:21:04;4.60;;;2.80;;
75550;SDS011;65071;53.082;18.218;2023-07-08T00:23:34;9.70;;;3.60;;
75550;SDS011;65071;53.082;18.218;2023-07-08T00:26:02;6.60;;;3.60;;
75550;SDS011;65071;53.082;18.218;2023-07-08T00:28:36;5.80;;;3.70;;
75550;SDS011;65071;53.082;18.218;2023-07-08T00:31:04;5.50;;;3.70;;
75550;SDS011;65071;53.082;18.218;2023-07-08T00:33:35;5.30;;;3.90;;
75550;SDS011;65071;53.082;18.218;2023-07-08T00:36:01;7.10;;;4.10;;
75550;SDS011;65071;53.082;18.218;2023-07-08T00:38:35;6.70;;;4.30;;
75550;SDS011;65071;53.082;18.218;2023-07-08T00:48:47;5.30;;;4.10;;
75550;SDS011;65071;53.082;18.218;2023-07-08T00:51:16;6.50;;;4.40;;
75550;SDS011;65071;53.082;18.218;2023-07-08T00:53:45;6.30;;;4.40;;
75550;SDS011;65071;53.082;18.218;2023-07-08T00:56:13;9.20;;;4.70;;
75550;SDS011;65071;53.082;18.218;2023-07-08T00:58:50;8.10;;;4.70;;
75550;SDS011;65071;53.082;18.218;2023-07-08T01:01:21;9.70;;;5.30;;
75550;SDS011;65071;53.082;18.218;2023-07-08T01:03:56;5.90;;;4.90;;
75550;SDS011;65071;53.082;18.218;2023-07-08T01:06:27;7.40;;;5.20;;
75550;SDS011;65071;53.082;18.218;2023-07-08T01:09:01;6.80;;;4.90;;
75550;SDS011;65071;53.082;18.218;2023-07-08T01:11:31;7.90;;;5.00;;
75550;SDS011;65071;53.082;18.218;2023-07-08T01:13:59;8.60;;;5.20;;
75550;SDS011;65071;53.082;18.218;2023-07-08T01:16:27;5.60;;;4.30;;
75550;SDS011;65071;53.082;18.218;2023-07-08T01:18:54;8.10;;;5.10;;
75550;SDS011;65071;53.082;18.218;2023-07-08T01:23:59;10.30;;;5.50;;
75550;SDS011;65071;53.082;18.218;2023-07-08T01:26:28;6.60;;;4.50;;
75550;SDS011;65071;53.082;18.218;2023-07-08T01:28:56;5.40;;;4.20;;
75550;SDS011;65071;53.082;18.218;2023-07-08T01:31:23;5.00;;;4.10;;
75550;SDS011;65071;53.082;18.218;2023-07-08T01:33:53;7.40;;;4.60;;
75550;SDS011;65071;53.082;18.218;2023-07-08T01:36:20;5.60;;;4.10;;
75550;SDS011;65071;53.082;18.218;2023-07-08T01:38:47;6.90;;;4.10;;
75550;SDS011;65071;53.082;18.218;2023-07-08T01:41:14;6.70;;;3.80;;
75550;SDS011;65071;53.082;18.218;2023-07-08T01:43:42;5.80;;;4.00;;
75550;SDS011;65071;53.082;18.218;2023-07-08T01:46:11;5.50;;;4.00;;
75550;SDS011;65071;53.082;18.218;2023-07-08T01:48:42;5.60;;;3.80;;
75550;SDS011;65071;53.082;18.218;2023-07-08T01:51:12;5.10;;;4.00;;
75550;SDS011;65071;53.082;18.218;2023-07-08T01:53:40;10.70;;;4.30;;
75550;SDS011;65071;53.082;18.218;2023-07-08T01:56:09;5.80;;;4.00;;
75550;SDS011;65071;53.082;18.218;2023-07-08T01:58:37;5.90;;;3.70;;
75550;SDS011;65071;53.082;18.218;2023-07-08T02:01:04;4.60;;;3.60;;
75550;SDS011;65071;53.082;18.218;2023-07-08T02:03:31;5.30;;;3.80;;
75550;SDS011;65071;53.082;18.218;2023-07-08T02:05:58;6.40;;;4.30;;
75550;SDS011;65071;53.082;18.218;2023-07-08T02:08:25;6.00;;;4.00;;
75550;SDS011;65071;53.082;18.218;2023-07-08T02:10:52;5.60;;;3.90;;
75550;SDS011;65071;53.082;18.218;2023-07-08T02:13:21;6.00;;;4.10;;
75550;SDS011;65071;53.082;18.218;2023-07-08T02:15:49;6.90;;;3.90;;
75550;SDS011;65071;53.082;18.218;2023-07-08T02:18:16;6.40;;;3.60;;
75550;SDS011;65071;53.082;18.218;2023-07-08T02:20:45;5.20;;;4.00;;
75550;SDS011;65071;53.082;18.218;2023-07-08T02:23:13;7.10;;;4.90;;
75550;SDS011;65071;53.082;18.218;2023-07-08T02:25:41;7.60;;;4.80;;
75550;SDS011;65071;53.082;18.218;2023-07-08T02:28:07;6.50;;;5.10;;
75550;SDS011;65071;53.082;18.218;2023-07-08T02:30:33;7.30;;;5.00;;
75550;SDS011;65071;53.082;18.218;2023-07-08T02:33:00;7.80;;;5.00;;
75550;SDS011;65071;53.082;18.218;2023-07-08T02:35:30;5.50;;;4.40;;
75550;SDS011;65071;53.082;18.218;2023-07-08T02:37:57;7.10;;;5.00;;
75550;SDS011;65071;53.082;18.218;2023-07-08T02:40:24;8.90;;;4.90;;
75550;SDS011;65071;53.082;18.218;2023-07-08T02:42:51;6.70;;;5.90;;
75550;SDS011;65071;53.082;18.218;2023-07-08T02:45:18;9.00;;;6.20;;
75550;SDS011;65071;53.082;18.218;2023-07-08T02:47:45;12.30;;;6.90;;
75550;SDS011;65071;53.082;18.218;2023-07-08T02:50:12;8.10;;;6.10;;
75550;SDS011;65071;53.082;18.218;2023-07-08T02:52:39;10.40;;;5.90;;
75550;SDS011;65071;53.082;18.218;2023-07-08T02:55:06;7.10;;;5.40;;
75550;SDS011;65071;53.082;18.218;2023-07-08T02:57:33;8.50;;;5.70;;
75550;SDS011;65071;53.082;18.218;2023-07-08T02:59:59;7.40;;;4.90;;
75550;SDS011;65071;53.082;18.218;2023-07-08T03:02:26;6.10;;;4.70;;
75550;SDS011;65071;53.082;18.218;2023-07-08T03:04:53;6.50;;;5.00;;
75550;SDS011;65071;53.082;18.218;2023-07-08T03:07:20;8.00;;;5.40;;
75550;SDS011;65071;53.082;18.218;2023-07-08T03:09:47;7.30;;;4.70;;
75550;SDS011;65071;53.082;18.218;2023-07-08T03:12:13;7.00;;;4.60;;
75550;SDS011;65071;53.082;18.218;2023-07-08T03:14:40;6.40;;;4.80;;
75550;SDS011;65071;53.082;18.218;2023-07-08T03:17:07;8.20;;;4.60;;
75550;SDS011;65071;53.082;18.218;2023-07-08T03:19:33;7.10;;;4.90;;
75550;SDS011;65071;53.082;18.218;2023-07-08T03:22:01;6.30;;;4.60;;
75550;SDS011;65071;53.082;18.218;2023-07-08T03:24:31;5.80;;;4.60;;
75550;SDS011;65071;53.082;18.218;2023-07-08T03:26:59;7.10;;;4.40;;
75550;SDS011;65071;53.082;18.218;2023-07-08T03:29:31;5.80;;;4.10;;
75550;SDS011;65071;53.082;18.218;2023-07-08T03:31:58;7.20;;;4.30;;
75550;SDS011;65071;53.082;18.218;2023-07-08T03:34:24;6.60;;;4.60;;
75550;SDS011;65071;53.082;18.218;2023-07-08T03:36:51;9.60;;;4.90;;
75550;SDS011;65071;53.082;18.218;2023-07-08T03:39:21;6.10;;;4.90;;
75550;SDS011;65071;53.082;18.218;2023-07-08T03:41:50;6.20;;;4.70;;
75550;SDS011;65071;53.082;18.218;2023-07-08T03:44:17;6.20;;;4.80;;
75550;SDS011;65071;53.082;18.218;2023-07-08T03:46:44;6.20;;;5.10;;
75550;SDS011;65071;53.082;18.218;2023-07-08T03:49:13;8.80;;;5.60;;
75550;SDS011;65071;53.082;18.218;2023-07-08T03:51:40;8.30;;;5.70;;
75550;SDS011;65071;53.082;18.218;2023-07-08T03:54:09;7.40;;;5.40;;
75550;SDS011;65071;53.082;18.218;2023-07-08T03:56:38;7.40;;;5.20;;
75550;SDS011;65071;53.082;18.218;2023-07-08T03:59:05;5.40;;;4.50;;
75550;SDS011;65071;53.082;18.218;2023-07-08T04:01:32;9.20;;;4.90;;
75550;SDS011;65071;53.082;18.218;2023-07-08T04:03:59;7.60;;;4.90;;
75550;SDS011;65071;53.082;18.218;2023-07-08T04:06:26;7.70;;;5.20;;
75550;SDS011;65071;53.082;18.218;2023-07-08T04:11:22;6.30;;;4.50;;
75550;SDS011;65071;53.082;18.218;2023-07-08T04:13:50;6.30;;;4.60;;
75550;SDS011;65071;53.082;18.218;2023-07-08T04:16:18;8.20;;;4.70;;
75550;SDS011;65071;53.082;18.218;2023-07-08T04:18:50;9.00;;;5.20;;
75550;SDS011;65071;53.082;18.218;2023-07-08T04:21:19;6.00;;;4.80;;
75550;SDS011;65071;53.082;18.218;2023-07-08T04:23:46;10.30;;;6.80;;
75550;SDS011;65071;53.082;18.218;2023-07-08T04:26:13;9.40;;;7.00;;
75550;SDS011;65071;53.082;18.218;2023-07-08T04:28:41;10.60;;;8.60;;
75550;SDS011;65071;53.082;18.218;2023-07-08T04:31:08;10.00;;;7.30;;
75550;SDS011;65071;53.082;18.218;2023-07-08T04:33:35;8.30;;;6.80;;
75550;SDS011;65071;53.082;18.218;2023-07-08T04:36:01;8.90;;;6.80;;
75550;SDS011;65071;53.082;18.218;2023-07-08T04:38:29;8.20;;;6.50;;
75550;SDS011;65071;53.082;18.218;2023-07-08T04:40:55;8.00;;;6.30;;
75550;SDS011;65071;53.082;18.218;2023-07-08T04:43:23;8.10;;;5.60;;
75550;SDS011;65071;53.082;18.218;2023-07-08T04:45:55;6.90;;;5.10;;
75550;SDS011;65071;53.082;18.218;2023-07-08T04:48:22;6.50;;;5.10;;
75550;SDS011;65071;53.082;18.218;2023-07-08T04:50:51;6.90;;;5.30;;
75550;SDS011;65071;53.082;18.218;2023-07-08T04:53:19;5.60;;;4.70;;
75550;SDS011;65071;53.082;18.218;2023-07-08T04:55:55;7.70;;;5.00;;
75550;SDS011;65071;53.082;18.218;2023-07-08T04:58:22;7.20;;;4.90;;
75550;SDS011;65071;53.082;18.218;2023-07-08T05:00:49;5.00;;;4.50;;
75550;SDS011;65071;53.082;18.218;2023-07-08T05:03:15;5.40;;;4.70;;
75550;SDS011;65071;53.082;18.218;2023-07-08T05:05:42;5.20;;;4.30;;
75550;SDS011;65071;53.082;18.218;2023-07-08T05:08:08;5.60;;;4.60;;
75550;SDS011;65071;53.082;18.218;2023-07-08T05:10:35;4.50;;;3.10;;
75550;SDS011;65071;53.082;18.218;2023-07-08T05:13:01;5.80;;;4.20;;
75550;SDS011;65071;53.082;18.218;2023-07-08T05:15:28;5.20;;;4.10;;
75550;SDS011;65071;53.082;18.218;2023-07-08T05:17:54;7.50;;;4.60;;
75550;SDS011;65071;53.082;18.218;2023-07-08T05:20:21;5.20;;;3.90;;
75550;SDS011;65071;53.082;18.218;2023-07-08T05:22:48;6.90;;;4.40;;
75550;SDS011;65071;53.082;18.218;2023-07-08T05:25:15;5.00;;;4.30;;
75550;SDS011;65071;53.082;18.218;2023-07-08T05:27:42;6.00;;;3.90;;
75550;SDS011;65071;53.082;18.218;2023-07-08T05:30:10;5.30;;;3.80;;
75550;SDS011;65071;53.082;18.218;2023-07-08T05:32:41;6.10;;;4.10;;
75550;SDS011;65071;53.082;18.218;2023-07-08T05:35:08;6.80;;;4.50;;
75550;SDS011;65071;53.082;18.218;2023-07-08T05:37:35;6.10;;;4.30;;
75550;SDS011;65071;53.082;18.218;2023-07-08T05:40:02;5.70;;;4.20;;
75550;SDS011;65071;53.082;18.218;2023-07-08T05:42:30;5.50;;;4.00;;
75550;SDS011;65071;53.082;18.218;2023-07-08T05:44:57;6.10;;;4.40;;
75550;SDS011;65071;53.082;18.218;2023-07-08T05:47:23;5.10;;;3.70;;
75550;SDS011;65071;53.082;18.218;2023-07-08T05:49:51;5.60;;;4.00;;
75550;SDS011;65071;53.082;18.218;2023-07-08T05:52:17;6.60;;;4.40;;
75550;SDS011;65071;53.082;18.218;2023-07-08T05:54:44;8.40;;;4.30;;
75550;SDS011;65071;53.082;18.218;2023-07-08T05:57:10;6.70;;;4.40;;
75550;SDS011;65071;53.082;18.218;2023-07-08T05:59:37;8.80;;;4.70;;
75550;SDS011;65071;53.082;18.218;2023-07-08T06:02:10;7.30;;;4.00;;
75550;SDS011;65071;53.082;18.218;2023-07-08T06:07:04;4.90;;;3.50;;
75550;SDS011;65071;53.082;18.218;2023-07-08T06:09:31;3.90;;;3.40;;
75550;SDS011;65071;53.082;18.218;2023-07-08T06:11:58;7.30;;;3.70;;
75550;SDS011;65071;53.082;18.218;2023-07-08T06:14:24;4.20;;;3.70;;
75550;SDS011;65071;53.082;18.218;2023-07-08T06:16:51;4.50;;;3.50;;
75550;SDS011;65071;53.082;18.218;2023-07-08T06:19:17;6.60;;;3.70;;
75550;SDS011;65071;53.082;18.218;2023-07-08T06:21:44;5.10;;;3.50;;
75550;SDS011;65071;53.082;18.218;2023-07-08T06:24:10;5.50;;;3.80;;
75550;SDS011;65071;53.082;18.218;2023-07-08T06:26:37;3.60;;;3.10;;
75550;SDS011;65071;53.082;18.218;2023-07-08T06:29:04;5.30;;;2.90;;
75550;SDS011;65071;53.082;18.218;2023-07-08T06:31:30;3.40;;;2.70;;
75550;SDS011;65071;53.082;18.218;2023-07-08T06:33:57;3.30;;;3.00;;
75550;SDS011;65071;53.082;18.218;2023-07-08T06:36:23;3.90;;;3.10;;
75550;SDS011;65071;53.082;18.218;2023-07-08T06:38:50;4.00;;;2.80;;
75550;SDS011;65071;53.082;18.218;2023-07-08T06:41:16;4.30;;;3.10;;
75550;SDS011;65071;53.082;18.218;2023-07-08T06:43:43;4.90;;;3.00;;
75550;SDS011;65071;53.082;18.218;2023-07-08T06:46:16;4.80;;;2.90;;
75550;SDS011;65071;53.082;18.218;2023-07-08T06:48:45;5.60;;;2.90;;
75550;SDS011;65071;53.082;18.218;2023-07-08T06:51:11;4.90;;;2.90;;
75550;SDS011;65071;53.082;18.218;2023-07-08T06:53:38;3.20;;;2.80;;
75550;SDS011;65071;53.082;18.218;2023-07-08T06:56:04;4.10;;;2.80;;
75550;SDS011;65071;53.082;18.218;2023-07-08T06:58:31;4.50;;;2.70;;
75550;SDS011;65071;53.082;18.218;2023-07-08T07:00:57;3.80;;;3.00;;
75550;SDS011;65071;53.082;18.218;2023-07-08T07:03:24;3.20;;;2.40;;
75550;SDS011;65071;53.082;18.218;2023-07-08T07:05:50;4.60;;;2.80;;
75550;SDS011;65071;53.082;18.218;2023-07-08T07:08:17;3.60;;;2.30;;
75550;SDS011;65071;53.082;18.218;2023-07-08T07:10:44;4.10;;;2.60;;
75550;SDS011;65071;53.082;18.218;2023-07-08T07:13:10;6.10;;;2.40;;
75550;SDS011;65071;53.082;18.218;2023-07-08T07:15:37;4.10;;;2.40;;
75550;SDS011;65071;53.082;18.218;2023-07-08T07:18:03;2.60;;;2.10;;
75550;SDS011;65071;53.082;18.218;2023-07-08T07:20:30;4.40;;;2.20;;
75550;SDS011;65071;53.082;18.218;2023-07-08T07:22:57;4.90;;;2.30;;
75550;SDS011;65071;53.082;18.218;2023-07-08T07:25:24;4.30;;;2.30;;
75550;SDS011;65071;53.082;18.218;2023-07-08T07:27:50;2.40;;;1.90;;
75550;SDS011;65071;53.082;18.218;2023-07-08T07:30:17;3.40;;;1.70;;
75550;SDS011;65071;53.082;18.218;2023-07-08T07:32:43;1.70;;;1.50;;
75550;SDS011;65071;53.082;18.218;2023-07-08T07:35:10;2.70;;;1.80;;
75550;SDS011;65071;53.082;18.218;2023-07-08T07:37:39;2.10;;;1.60;;
75550;SDS011;65071;53.082;18.218;2023-07-08T07:40:07;2.10;;;1.40;;
75550;SDS011;65071;53.082;18.218;2023-07-08T07:42:39;2.30;;;1.60;;
75550;SDS011;65071;53.082;18.218;2023-07-08T07:45:06;2.20;;;1.70;;
75550;SDS011;65071;53.082;18.218;2023-07-08T07:47:34;3.30;;;1.70;;
75550;SDS011;65071;53.082;18.218;2023-07-08T07:50:01;3.50;;;1.60;;
75550;SDS011;65071;53.082;18.218;2023-07-08T07:52:28;4.40;;;1.90;;
75550;SDS011;65071;53.082;18.218;2023-07-08T07:54:55;2.00;;;1.70;;
75550;SDS011;65071;53.082;18.218;2023-07-08T07:57:22;3.10;;;1.90;;
75550;SDS011;65071;53.082;18.218;2023-07-08T07:59:48;2.90;;;1.80;;
75550;SDS011;65071;53.082;18.218;2023-07-08T08:02:16;2.10;;;1.60;;
75550;SDS011;65071;53.082;18.218;2023-07-08T08:04:43;3.70;;;1.90;;
75550;SDS011;65071;53.082;18.218;2023-07-08T08:07:09;1.90;;;1.70;;
75550;SDS011;65071;53.082;18.218;2023-07-08T08:09:36;3.20;;;1.80;;
75550;SDS011;65071;53.082;18.218;2023-07-08T08:12:04;2.30;;;1.60;;
75550;SDS011;65071;53.082;18.218;2023-07-08T08:14:31;4.10;;;1.90;;
75550;SDS011;65071;53.082;18.218;2023-07-08T08:16:57;2.50;;;1.80;;
75550;SDS011;65071;53.082;18.218;2023-07-08T08:19:24;3.70;;;2.00;;
75550;SDS011;65071;53.082;18.218;2023-07-08T08:21:50;2.50;;;1.60;;
75550;SDS011;65071;53.082;18.218;2023-07-08T08:24:17;2.40;;;1.70;;
75550;SDS011;65071;53.082;18.218;2023-07-08T08:26:43;2.60;;;1.80;;
75550;SDS011;65071;53.082;18.218;2023-07-08T08:29:10;1.90;;;1.60;;
75550;SDS011;65071;53.082;18.218;2023-07-08T08:31:36;2.60;;;1.90;;
75550;SDS011;65071;53.082;18.218;2023-07-08T08:34:03;1.60;;;1.50;;
75550;SDS011;65071;53.082;18.218;2023-07-08T08:36:29;1.80;;;1.50;;
75550;SDS011;65071;53.082;18.218;2023-07-08T08:38:56;1.80;;;1.70;;
75550;SDS011;65071;53.082;18.218;2023-07-08T08:44:08;4.00;;;1.70;;
75550;SDS011;65071;53.082;18.218;2023-07-08T08:51:44;1.70;;;1.60;;
75550;SDS011;65071;53.082;18.218;2023-07-08T08:54:11;1.70;;;1.60;;
75550;SDS011;65071;53.082;18.218;2023-07-08T09:02:16;1.70;;;1.60;;
75550;SDS011;65071;53.082;18.218;2023-07-08T09:05:05;2.70;;;1.60;;
75550;SDS011;65071;53.082;18.218;2023-07-08T09:07:36;2.90;;;1.40;;
75550;SDS011;65071;53.082;18.218;2023-07-08T09:12:52;2.30;;;1.40;;
75550;SDS011;65071;53.082;18.218;2023-07-08T09:15:22;2.30;;;1.40;;
75550;SDS011;65071;53.082;18.218;2023-07-08T09:17:48;1.60;;;1.50;;
75550;SDS011;65071;53.082;18.218;2023-07-08T09:28:38;2.20;;;1.80;;
75550;SDS011;65071;53.082;18.218;2023-07-08T09:31:06;2.50;;;1.40;;
75550;SDS011;65071;53.082;18.218;2023-07-08T09:33:37;2.20;;;1.50;;
75550;SDS011;65071;53.082;18.218;2023-07-08T09:36:15;3.90;;;1.60;;
75550;SDS011;65071;53.082;18.218;2023-07-08T09:41:34;2.30;;;1.20;;
75550;SDS011;65071;53.082;18.218;2023-07-08T09:44:06;1.70;;;1.30;;
75550;SDS011;65071;53.082;18.218;2023-07-08T09:46:56;3.30;;;1.60;;
75550;SDS011;65071;53.082;18.218;2023-07-08T09:49:31;3.00;;;1.70;;
75550;SDS011;65071;53.082;18.218;2023-07-08T09:52:00;2.10;;;1.70;;
75550;SDS011;65071;53.082;18.218;2023-07-08T09:54:27;1.80;;;1.60;;
75550;SDS011;65071;53.082;18.218;2023-07-08T09:56:55;2.00;;;1.40;;
75550;SDS011;65071;53.082;18.218;2023-07-08T09:59:28;2.20;;;1.80;;
75550;SDS011;65071;53.082;18.218;2023-07-08T10:01:59;2.80;;;1.80;;
75550;SDS011;65071;53.082;18.218;2023-07-08T10:04:27;2.80;;;1.60;;
75550;SDS011;65071;53.082;18.218;2023-07-08T10:06:54;2.30;;;1.50;;
75550;SDS011;65071;53.082;18.218;2023-07-08T10:09:23;2.70;;;1.90;;
75550;SDS011;65071;53.082;18.218;2023-07-08T10:11:53;1.40;;;1.30;;
75550;SDS011;65071;53.082;18.218;2023-07-08T10:14:39;2.70;;;1.50;;
75550;SDS011;65071;53.082;18.218;2023-07-08T10:17:13;2.00;;;1.70;;
75550;SDS011;65071;53.082;18.218;2023-07-08T10:19:42;1.80;;;1.40;;
75550;SDS011;65071;53.082;18.218;2023-07-08T10:25:13;2.10;;;1.60;;
75550;SDS011;65071;53.082;18.218;2023-07-08T10:33:59;1.60;;;1.30;;
75550;SDS011;65071;53.082;18.218;2023-07-08T10:37:14;2.80;;;1.90;;
75550;SDS011;65071;53.082;18.218;2023-07-08T10:52:02;2.00;;;1.50;;
75550;SDS011;65071;53.082;18.218;2023-07-08T11:00:28;2.20;;;1.80;;
75550;SDS011;65071;53.082;18.218;2023-07-08T11:03:11;1.90;;;1.50;;
75550;SDS011;65071;53.082;18.218;2023-07-08T11:05:59;1.80;;;1.40;;
75550;SDS011;65071;53.082;18.218;2023-07-08T11:17:10;3.30;;;1.40;;
75550;SDS011;65071;53.082;18.218;2023-07-08T11:19:53;2.10;;;1.60;;
75550;SDS011;65071;53.082;18.218;2023-07-08T11:22:28;2.90;;;2.10;;
75550;SDS011;65071;53.082;18.218;2023-07-08T11:24:57;1.90;;;1.70;;
75550;SDS011;65071;53.082;18.218;2023-07-08T11:27:29;3.80;;;2.10;;
75550;SDS011;65071;53.082;18.218;2023-07-08T11:30:02;1.60;;;1.50;;
75550;SDS011;65071;53.082;18.218;2023-07-08T11:32:38;1.90;;;1.50;;
75550;SDS011;65071;53.082;18.218;2023-07-08T11:35:13;3.10;;;1.70;;
75550;SDS011;65071;53.082;18.218;2023-07-08T11:37:48;2.00;;;1.70;;
75550;SDS011;65071;53.082;18.218;2023-07-08T11:40:18;1.80;;;1.60;;
75550;SDS011;65071;53.082;18.218;2023-07-08T11:42:50;2.80;;;1.80;;
75550;SDS011;65071;53.082;18.218;2023-07-08T11:45:27;2.40;;;1.80;;
75550;SDS011;65071;53.082;18.218;2023-07-08T11:50:43;2.70;;;1.70;;
75550;SDS011;65071;53.082;18.218;2023-07-08T11:53:30;4.00;;;1.80;;
75550;SDS011;65071;53.082;18.218;2023-07-08T11:55:58;2.90;;;1.70;;
75550;SDS011;65071;53.082;18.218;2023-07-08T11:58:28;3.10;;;1.90;;
75550;SDS011;65071;53.082;18.218;2023-07-08T12:03:39;2.40;;;1.60;;
75550;SDS011;65071;53.082;18.218;2023-07-08T12:08:56;2.90;;;1.60;;
75550;SDS011;65071;53.082;18.218;2023-07-08T12:11:27;3.20;;;1.70;;
75550;SDS011;65071;53.082;18.218;2023-07-08T12:13:58;2.80;;;1.60;;
75550;SDS011;65071;53.082;18.218;2023-07-08T12:16:26;2.40;;;1.90;;
75550;SDS011;65071;53.082;18.218;2023-07-08T12:18:55;2.30;;;1.80;;
75550;SDS011;65071;53.082;18.218;2023-07-08T12:21:25;3.00;;;1.80;;
75550;SDS011;65071;53.082;18.218;2023-07-08T12:23:53;1.90;;;1.50;;
75550;SDS011;65071;53.082;18.218;2023-07-08T12:26:21;3.30;;;1.60;;
75550;SDS011;65071;53.082;18.218;2023-07-08T12:28:51;3.20;;;1.90;;
75550;SDS011;65071;53.082;18.218;2023-07-08T12:31:18;2.10;;;1.70;;
75550;SDS011;65071;53.082;18.218;2023-07-08T12:33:47;2.20;;;1.70;;
75550;SDS011;65071;53.082;18.218;2023-07-08T12:36:19;2.50;;;1.80;;
75550;SDS011;65071;53.082;18.218;2023-07-08T12:38:52;1.70;;;1.60;;
75550;SDS011;65071;53.082;18.218;2023-07-08T12:41:21;2.40;;;1.70;;
75550;SDS011;65071;53.082;18.218;2023-07-08T12:43:57;3.50;;;1.80;;
75550;SDS011;65071;53.082;18.218;2023-07-08T12:46:25;2.20;;;1.80;;
75550;SDS011;65071;53.082;18.218;2023-07-08T12:48:52;2.60;;;1.90;;
75550;SDS011;65071;53.082;18.218;2023-07-08T12:51:19;2.90;;;1.80;;
75550;SDS011;65071;53.082;18.218;2023-07-08T12:53:48;2.90;;;1.90;;
75550;SDS011;65071;53.082;18.218;2023-07-08T12:56:16;2.70;;;1.60;;
75550;SDS011;65071;53.082;18.218;2023-07-08T12:58:45;2.90;;;1.80;;
75550;SDS011;65071;53.082;18.218;2023-07-08T13:01:27;3.10;;;1.70;;
75550;SDS011;65071;53.082;18.218;2023-07-08T13:03:59;2.60;;;1.80;;
75550;SDS011;65071;53.082;18.218;2023-07-08T13:06:29;4.30;;;2.00;;
75550;SDS011;65071;53.082;18.218;2023-07-08T13:09:00;2.30;;;1.70;;
75550;SDS011;65071;53.082;18.218;2023-07-08T13:11:33;2.20;;;1.80;;
75550;SDS011;65071;53.082;18.218;2023-07-08T13:14:03;2.60;;;1.90;;
75550;SDS011;65071;53.082;18.218;2023-07-08T13:16:33;3.50;;;1.70;;
75550;SDS011;65071;53.082;18.218;2023-07-08T13:19:01;2.50;;;2.00;;
75550;SDS011;65071;53.082;18.218;2023-07-08T13:21:29;2.60;;;1.70;;
75550;SDS011;65071;53.082;18.218;2023-07-08T13:23:58;2.70;;;1.80;;
75550;SDS011;65071;53.082;18.218;2023-07-08T13:26:26;2.00;;;1.70;;
75550;SDS011;65071;53.082;18.218;2023-07-08T13:28:59;2.80;;;1.50;;
75550;SDS011;65071;53.082;18.218;2023-07-08T13:31:49;2.70;;;1.90;;
75550;SDS011;65071;53.082;18.218;2023-07-08T13:34:20;2.50;;;2.00;;
75550;SDS011;65071;53.082;18.218;2023-07-08T13:36:50;2.50;;;1.70;;
75550;SDS011;65071;53.082;18.218;2023-07-08T13:39:20;2.70;;;1.60;;
75550;SDS011;65071;53.082;18.218;2023-07-08T13:41:53;3.20;;;2.00;;
75550;SDS011;65071;53.082;18.218;2023-07-08T13:44:21;3.60;;;1.90;;
75550;SDS011;65071;53.082;18.218;2023-07-08T13:46:51;2.80;;;1.90;;
75550;SDS011;65071;53.082;18.218;2023-07-08T13:49:24;3.60;;;1.90;;
75550;SDS011;65071;53.082;18.218;2023-07-08T13:57:17;5.60;;;2.00;;
75550;SDS011;65071;53.082;18.218;2023-07-08T13:59:45;2.70;;;1.80;;
75550;SDS011;65071;53.082;18.218;2023-07-08T14:02:20;2.60;;;1.70;;
75550;SDS011;65071;53.082;18.218;2023-07-08T14:04:49;2.80;;;1.70;;
75550;SDS011;65071;53.082;18.218;2023-07-08T14:07:19;3.10;;;1.80;;
75550;SDS011;65071;53.082;18.218;2023-07-08T14:09:47;1.40;;;1.30;;
75550;SDS011;65071;53.082;18.218;2023-07-08T14:12:14;2.80;;;1.90;;
75550;SDS011;65071;53.082;18.218;2023-07-08T14:14:41;2.80;;;2.00;;
75550;SDS011;65071;53.082;18.218;2023-07-08T14:17:08;2.70;;;1.80;;
75550;SDS011;65071;53.082;18.218;2023-07-08T14:19:40;2.50;;;1.90;;
75550;SDS011;65071;53.082;18.218;2023-07-08T14:24:40;2.00;;;1.80;;
75550;SDS011;65071;53.082;18.218;2023-07-08T14:27:07;2.10;;;1.90;;
75550;SDS011;65071;53.082;18.218;2023-07-08T14:29:38;2.70;;;1.90;;
75550;SDS011;65071;53.082;18.218;2023-07-08T14:32:10;2.00;;;1.80;;
75550;SDS011;65071;53.082;18.218;2023-07-08T14:34:40;2.90;;;2.00;;
75550;SDS011;65071;53.082;18.218;2023-07-08T14:37:11;2.00;;;1.80;;
75550;SDS011;65071;53.082;18.218;2023-07-08T14:39:40;5.30;;;1.80;;
75550;SDS011;65071;53.082;18.218;2023-07-08T14:42:13;2.10;;;1.90;;
75550;SDS011;65071;53.082;18.218;2023-07-08T14:44:45;1.90;;;1.70;;
75550;SDS011;65071;53.082;18.218;2023-07-08T14:47:15;2.50;;;2.00;;
75550;SDS011;65071;53.082;18.218;2023-07-08T14:49:43;1.90;;;1.60;;
75550;SDS011;65071;53.082;18.218;2023-07-08T14:52:10;3.70;;;2.10;;
75550;SDS011;65071;53.082;18.218;2023-07-08T14:54:37;2.20;;;2.00;;
75550;SDS011;65071;53.082;18.218;2023-07-08T14:57:03;3.10;;;2.20;;
75550;SDS011;65071;53.082;18.218;2023-07-08T14:59:31;3.10;;;2.00;;
75550;SDS011;65071;53.082;18.218;2023-07-08T15:02:01;3.90;;;2.00;;
75550;SDS011;65071;53.082;18.218;2023-07-08T15:04:41;3.70;;;1.80;;
75550;SDS011;65071;53.082;18.218;2023-07-08T15:07:08;2.10;;;1.80;;
75550;SDS011;65071;53.082;18.218;2023-07-08T15:09:34;2.90;;;2.30;;
75550;SDS011;65071;53.082;18.218;2023-07-08T15:12:01;4.10;;;1.90;;
75550;SDS011;65071;53.082;18.218;2023-07-08T15:14:28;3.20;;;2.00;;
75550;SDS011;65071;53.082;18.218;2023-07-08T15:16:54;1.90;;;1.70;;
75550;SDS011;65071;53.082;18.218;2023-07-08T15:19:21;2.90;;;2.20;;
75550;SDS011;65071;53.082;18.218;2023-07-08T15:21:48;2.90;;;2.10;;
75550;SDS011;65071;53.082;18.218;2023-07-08T15:24:15;2.40;;;2.20;;
75550;SDS011;65071;53.082;18.218;2023-07-08T15:26:42;2.60;;;1.90;;
75550;SDS011;65071;53.082;18.218;2023-07-08T15:29:21;2.20;;;2.00;;
75550;SDS011;65071;53.082;18.218;2023-07-08T15:31:49;3.60;;;2.30;;
75550;SDS011;65071;53.082;18.218;2023-07-08T15:34:17;2.40;;;2.20;;
75550;SDS011;65071;53.082;18.218;2023-07-08T15:36:45;2.80;;;2.30;;
75550;SDS011;65071;53.082;18.218;2023-07-08T15:39:12;2.30;;;1.90;;
75550;SDS011;65071;53.082;18.218;2023-07-08T15:41:40;4.50;;;2.30;;
75550;SDS011;65071;53.082;18.218;2023-07-08T15:44:11;1.80;;;1.70;;
75550;SDS011;65071;53.082;18.218;2023-07-08T15:46:42;1.90;;;1.70;;
75550;SDS011;65071;53.082;18.218;2023-07-08T15:49:16;2.30;;;2.10;;
75550;SDS011;65071;53.082;18.218;2023-07-08T15:51:44;4.50;;;2.50;;
75550;SDS011;65071;53.082;18.218;2023-07-08T15:54:11;2.10;;;1.90;;
75550;SDS011;65071;53.082;18.218;2023-07-08T15:56:38;2.50;;;2.30;;
75550;SDS011;65071;53.082;18.218;2023-07-08T15:59:09;2.30;;;2.10;;
75550;SDS011;65071;53.082;18.218;2023-07-08T16:01:40;3.30;;;2.10;;
75550;SDS011;65071;53.082;18.218;2023-07-08T16:04:19;3.10;;;2.20;;
75550;SDS011;65071;53.082;18.218;2023-07-08T16:06:50;2.40;;;2.00;;
75550;SDS011;65071;53.082;18.218;2023-07-08T16:09:17;4.00;;;1.80;;
75550;SDS011;65071;53.082;18.218;2023-07-08T16:11:43;3.90;;;2.10;;
75550;SDS011;65071;53.082;18.218;2023-07-08T16:14:13;3.30;;;2.40;;
75550;SDS011;65071;53.082;18.218;2023-07-08T16:16:42;2.50;;;2.00;;
75550;SDS011;65071;53.082;18.218;2023-07-08T16:19:10;2.90;;;2.20;;